sensor_id;sensor_type;location;lat;lon;timestamp;temperature;humidity
10171;DHT22;5127;50.922;6.988;2022-07-24T00:01:42;21.70;58.50
10171;DHT22;5127;50.922;6.988;2022-07-24T00:04:10;21.70;58.60
10171;DHT22;5127;50.922;6.988;2022-07-24T00:06:38;21.70;58.60
10171;DHT22;5127;50.922;6.988;2022-07-24T00:09:06;21.70;58.80
10171;DHT22;5127;50.922;6.988;2022-07-24T00:11:33;21.70;59.00
10171;DHT22;5127;50.922;6.988;2022-07-24T00:14:01;21.70;58.90
10171;DHT22;5127;50.922;6.988;2022-07-24T00:16:28;21.60;58.80
10171;DHT22;5127;50.922;6.988;2022-07-24T00:18:56;21.60;58.80
10171;DHT22;5127;50.922;6.988;2022-07-24T00:21:23;21.60;58.90
10171;DHT22;5127;50.922;6.988;2022-07-24T00:23:52;21.60;59.00
10171;DHT22;5127;50.922;6.988;2022-07-24T00:26:19;21.50;59.00
10171;DHT22;5127;50.922;6.988;2022-07-24T00:28:47;21.50;58.90
10171;DHT22;5127;50.922;6.988;2022-07-24T00:31:16;21.50;59.60
10171;DHT22;5127;50.922;6.988;2022-07-24T00:33:43;21.50;59.00
10171;DHT22;5127;50.922;6.988;2022-07-24T00:36:10;21.50;59.20
10171;DHT22;5127;50.922;6.988;2022-07-24T00:38:37;21.40;59.20
10171;DHT22;5127;50.922;6.988;2022-07-24T00:41:06;21.40;59.30
10171;DHT22;5127;50.922;6.988;2022-07-24T00:43:34;21.40;59.40
10171;DHT22;5127;50.922;6.988;2022-07-24T00:46:01;21.40;59.30
10171;DHT22;5127;50.922;6.988;2022-07-24T00:48:28;21.30;59.20
10171;DHT22;5127;50.922;6.988;2022-07-24T00:50:56;21.30;59.30
10171;DHT22;5127;50.922;6.988;2022-07-24T00:53:23;21.30;59.40
10171;DHT22;5127;50.922;6.988;2022-07-24T00:55:50;21.20;59.40
10171;DHT22;5127;50.922;6.988;2022-07-24T00:58:19;21.20;59.50
10171;DHT22;5127;50.922;6.988;2022-07-24T01:00:47;21.20;59.60
10171;DHT22;5127;50.922;6.988;2022-07-24T01:03:14;21.20;59.60
10171;DHT22;5127;50.922;6.988;2022-07-24T01:05:42;21.20;59.70
10171;DHT22;5127;50.922;6.988;2022-07-24T01:08:11;21.20;59.70
10171;DHT22;5127;50.922;6.988;2022-07-24T01:10:38;21.10;59.60
10171;DHT22;5127;50.922;6.988;2022-07-24T01:13:06;21.10;59.80
10171;DHT22;5127;50.922;6.988;2022-07-24T01:15:34;21.10;59.70
10171;DHT22;5127;50.922;6.988;2022-07-24T01:18:02;21.10;60.40
10171;DHT22;5127;50.922;6.988;2022-07-24T01:20:30;21.00;59.70
10171;DHT22;5127;50.922;6.988;2022-07-24T01:22:58;21.00;59.80
10171;DHT22;5127;50.922;6.988;2022-07-24T01:25:26;21.00;59.90
10171;DHT22;5127;50.922;6.988;2022-07-24T01:27:54;21.00;59.90
10171;DHT22;5127;50.922;6.988;2022-07-24T01:30:21;20.90;60.00
10171;DHT22;5127;50.922;6.988;2022-07-24T01:32:48;20.90;60.10
10171;DHT22;5127;50.922;6.988;2022-07-24T01:35:15;20.90;60.20
10171;DHT22;5127;50.922;6.988;2022-07-24T01:37:43;20.90;60.10
10171;DHT22;5127;50.922;6.988;2022-07-24T01:40:12;20.90;60.20
10171;DHT22;5127;50.922;6.988;2022-07-24T01:42:39;20.80;60.20
10171;DHT22;5127;50.922;6.988;2022-07-24T01:45:07;20.80;60.10
10171;DHT22;5127;50.922;6.988;2022-07-24T01:47:35;20.80;60.20
10171;DHT22;5127;50.922;6.988;2022-07-24T01:50:03;20.80;60.30
10171;DHT22;5127;50.922;6.988;2022-07-24T01:52:30;20.70;60.20
10171;DHT22;5127;50.922;6.988;2022-07-24T01:54:57;20.70;60.30
10171;DHT22;5127;50.922;6.988;2022-07-24T01:57:26;20.70;60.40
10171;DHT22;5127;50.922;6.988;2022-07-24T01:59:54;20.70;60.40
10171;DHT22;5127;50.922;6.988;2022-07-24T02:02:21;20.70;60.60
10171;DHT22;5127;50.922;6.988;2022-07-24T02:04:48;20.70;60.60
10171;DHT22;5127;50.922;6.988;2022-07-24T02:07:15;20.60;60.50
10171;DHT22;5127;50.922;6.988;2022-07-24T02:09:43;20.60;60.50
10171;DHT22;5127;50.922;6.988;2022-07-24T02:12:10;20.60;60.60
10171;DHT22;5127;50.922;6.988;2022-07-24T02:14:39;20.60;60.70
10171;DHT22;5127;50.922;6.988;2022-07-24T02:17:06;20.60;60.80
10171;DHT22;5127;50.922;6.988;2022-07-24T02:19:33;20.60;60.80
10171;DHT22;5127;50.922;6.988;2022-07-24T02:22:01;20.50;60.70
10171;DHT22;5127;50.922;6.988;2022-07-24T02:24:28;20.50;60.80
10171;DHT22;5127;50.922;6.988;2022-07-24T02:26:55;20.50;60.80
10171;DHT22;5127;50.922;6.988;2022-07-24T02:29:22;20.50;60.90
10171;DHT22;5127;50.922;6.988;2022-07-24T02:31:51;20.50;60.90
10171;DHT22;5127;50.922;6.988;2022-07-24T02:34:18;20.50;61.10
10171;DHT22;5127;50.922;6.988;2022-07-24T02:36:46;20.50;61.00
10171;DHT22;5127;50.922;6.988;2022-07-24T02:39:13;20.50;61.00
10171;DHT22;5127;50.922;6.988;2022-07-24T02:41:40;20.40;60.90
10171;DHT22;5127;50.922;6.988;2022-07-24T02:44:07;20.40;61.00
10171;DHT22;5127;50.922;6.988;2022-07-24T02:46:35;20.40;61.10
10171;DHT22;5127;50.922;6.988;2022-07-24T02:49:03;20.40;61.10
10171;DHT22;5127;50.922;6.988;2022-07-24T02:51:30;20.40;61.10
10171;DHT22;5127;50.922;6.988;2022-07-24T02:53:58;20.30;61.10
10171;DHT22;5127;50.922;6.988;2022-07-24T02:56:25;20.30;61.10
10171;DHT22;5127;50.922;6.988;2022-07-24T02:58:53;20.20;61.10
10171;DHT22;5127;50.922;6.988;2022-07-24T03:01:20;20.20;61.20
10171;DHT22;5127;50.922;6.988;2022-07-24T03:03:47;20.20;61.20
10171;DHT22;5127;50.922;6.988;2022-07-24T03:06:16;20.20;61.30
10171;DHT22;5127;50.922;6.988;2022-07-24T03:08:43;20.10;61.40
10171;DHT22;5127;50.922;6.988;2022-07-24T03:11:10;20.10;61.50
10171;DHT22;5127;50.922;6.988;2022-07-24T03:13:37;20.10;61.60
10171;DHT22;5127;50.922;6.988;2022-07-24T03:16:05;20.10;61.70
10171;DHT22;5127;50.922;6.988;2022-07-24T03:18:33;20.10;61.80
10171;DHT22;5127;50.922;6.988;2022-07-24T03:21:00;20.00;61.70
10171;DHT22;5127;50.922;6.988;2022-07-24T03:23:29;20.00;61.70
10171;DHT22;5127;50.922;6.988;2022-07-24T03:25:56;20.00;61.90
10171;DHT22;5127;50.922;6.988;2022-07-24T03:28:23;20.00;61.90
10171;DHT22;5127;50.922;6.988;2022-07-24T03:30:51;19.90;61.90
10171;DHT22;5127;50.922;6.988;2022-07-24T03:33:18;20.00;62.00
10171;DHT22;5127;50.922;6.988;2022-07-24T03:35:45;19.90;61.90
10171;DHT22;5127;50.922;6.988;2022-07-24T03:38:14;19.90;61.90
10171;DHT22;5127;50.922;6.988;2022-07-24T03:40:42;19.90;61.90
10171;DHT22;5127;50.922;6.988;2022-07-24T03:43:10;19.90;62.00
10171;DHT22;5127;50.922;6.988;2022-07-24T03:45:37;19.90;61.90
10171;DHT22;5127;50.922;6.988;2022-07-24T03:48:05;19.90;62.00
10171;DHT22;5127;50.922;6.988;2022-07-24T03:50:32;19.90;62.10
10171;DHT22;5127;50.922;6.988;2022-07-24T03:52:59;19.80;62.00
10171;DHT22;5127;50.922;6.988;2022-07-24T03:55:27;19.80;62.10
10171;DHT22;5127;50.922;6.988;2022-07-24T03:57:55;19.80;62.20
10171;DHT22;5127;50.922;6.988;2022-07-24T04:00:23;19.80;62.30
10171;DHT22;5127;50.922;6.988;2022-07-24T04:02:50;19.80;62.30
10171;DHT22;5127;50.922;6.988;2022-07-24T04:05:17;19.80;62.40
10171;DHT22;5127;50.922;6.988;2022-07-24T04:07:44;19.80;62.40
10171;DHT22;5127;50.922;6.988;2022-07-24T04:10:12;19.80;62.50
10171;DHT22;5127;50.922;6.988;2022-07-24T04:12:39;19.90;62.60
10171;DHT22;5127;50.922;6.988;2022-07-24T04:15:08;19.80;62.50
10171;DHT22;5127;50.922;6.988;2022-07-24T04:17:38;19.90;62.60
10171;DHT22;5127;50.922;6.988;2022-07-24T04:20:06;19.90;62.70
10171;DHT22;5127;50.922;6.988;2022-07-24T04:22:34;19.90;62.70
10171;DHT22;5127;50.922;6.988;2022-07-24T04:25:02;19.90;62.70
10171;DHT22;5127;50.922;6.988;2022-07-24T04:27:29;19.90;62.70
10171;DHT22;5127;50.922;6.988;2022-07-24T04:29:56;19.90;62.70
10171;DHT22;5127;50.922;6.988;2022-07-24T04:32:25;20.00;62.80
10171;DHT22;5127;50.922;6.988;2022-07-24T04:34:52;20.00;62.70
10171;DHT22;5127;50.922;6.988;2022-07-24T04:37:20;20.00;62.70
10171;DHT22;5127;50.922;6.988;2022-07-24T04:39:47;20.00;62.70
10171;DHT22;5127;50.922;6.988;2022-07-24T04:42:14;20.10;62.70
10171;DHT22;5127;50.922;6.988;2022-07-24T04:44:41;20.10;62.80
10171;DHT22;5127;50.922;6.988;2022-07-24T04:47:09;20.10;62.80
10171;DHT22;5127;50.922;6.988;2022-07-24T04:49:37;20.10;62.80
10171;DHT22;5127;50.922;6.988;2022-07-24T04:52:05;20.20;62.90
10171;DHT22;5127;50.922;6.988;2022-07-24T04:54:32;20.20;62.90
10171;DHT22;5127;50.922;6.988;2022-07-24T04:56:59;20.20;62.90
10171;DHT22;5127;50.922;6.988;2022-07-24T04:59:26;20.20;62.90
10171;DHT22;5127;50.922;6.988;2022-07-24T05:01:54;20.30;63.00
10171;DHT22;5127;50.922;6.988;2022-07-24T05:04:21;20.30;63.00
10171;DHT22;5127;50.922;6.988;2022-07-24T05:06:50;20.30;63.10
10171;DHT22;5127;50.922;6.988;2022-07-24T05:09:17;20.40;63.10
10171;DHT22;5127;50.922;6.988;2022-07-24T05:11:44;20.40;63.10
10171;DHT22;5127;50.922;6.988;2022-07-24T05:14:11;20.50;63.20
10171;DHT22;5127;50.922;6.988;2022-07-24T05:16:39;20.50;63.10
10171;DHT22;5127;50.922;6.988;2022-07-24T05:19:06;20.50;63.10
10171;DHT22;5127;50.922;6.988;2022-07-24T05:21:33;20.60;63.10
10171;DHT22;5127;50.922;6.988;2022-07-24T05:24:02;20.70;63.10
10171;DHT22;5127;50.922;6.988;2022-07-24T05:26:29;20.70;63.10
10171;DHT22;5127;50.922;6.988;2022-07-24T05:28:57;20.80;63.20
10171;DHT22;5127;50.922;6.988;2022-07-24T05:31:25;20.80;63.10
10171;DHT22;5127;50.922;6.988;2022-07-24T05:33:53;20.90;63.10
10171;DHT22;5127;50.922;6.988;2022-07-24T05:36:21;21.00;63.20
10171;DHT22;5127;50.922;6.988;2022-07-24T05:38:48;21.00;63.10
10171;DHT22;5127;50.922;6.988;2022-07-24T05:41:16;21.10;63.20
10171;DHT22;5127;50.922;6.988;2022-07-24T05:43:44;21.20;63.00
10171;DHT22;5127;50.922;6.988;2022-07-24T05:46:11;21.30;63.00
10171;DHT22;5127;50.922;6.988;2022-07-24T05:48:38;21.30;63.00
10171;DHT22;5127;50.922;6.988;2022-07-24T05:51:06;21.40;63.00
10171;DHT22;5127;50.922;6.988;2022-07-24T05:53:33;21.40;62.80
10171;DHT22;5127;50.922;6.988;2022-07-24T05:56:00;21.50;62.80
10171;DHT22;5127;50.922;6.988;2022-07-24T05:58:29;21.60;62.70
10171;DHT22;5127;50.922;6.988;2022-07-24T06:00:56;21.60;62.50
10171;DHT22;5127;50.922;6.988;2022-07-24T06:03:23;21.70;62.50
10171;DHT22;5127;50.922;6.988;2022-07-24T06:05:51;21.70;62.20
10171;DHT22;5127;50.922;6.988;2022-07-24T06:08:18;21.80;62.10
10171;DHT22;5127;50.922;6.988;2022-07-24T06:10:45;21.90;61.90
10171;DHT22;5127;50.922;6.988;2022-07-24T06:13:12;21.90;62.50
10171;DHT22;5127;50.922;6.988;2022-07-24T06:15:41;21.90;61.70
10171;DHT22;5127;50.922;6.988;2022-07-24T06:18:08;22.00;61.90
10171;DHT22;5127;50.922;6.988;2022-07-24T06:20:35;22.00;61.80
10171;DHT22;5127;50.922;6.988;2022-07-24T06:23:03;22.10;62.60
10171;DHT22;5127;50.922;6.988;2022-07-24T06:25:30;22.10;61.70
10171;DHT22;5127;50.922;6.988;2022-07-24T06:27:57;22.10;61.60
10171;DHT22;5127;50.922;6.988;2022-07-24T06:30:26;22.20;61.60
10171;DHT22;5127;50.922;6.988;2022-07-24T06:32:57;22.20;61.40
10171;DHT22;5127;50.922;6.988;2022-07-24T06:35:24;22.30;61.30
10171;DHT22;5127;50.922;6.988;2022-07-24T06:37:53;22.30;61.40
10171;DHT22;5127;50.922;6.988;2022-07-24T06:40:21;22.40;61.50
10171;DHT22;5127;50.922;6.988;2022-07-24T06:42:49;22.40;61.60
10171;DHT22;5127;50.922;6.988;2022-07-24T06:45:17;22.50;61.60
10171;DHT22;5127;50.922;6.988;2022-07-24T06:47:44;22.50;61.40
10171;DHT22;5127;50.922;6.988;2022-07-24T06:50:13;22.60;61.50
10171;DHT22;5127;50.922;6.988;2022-07-24T06:52:41;22.70;61.70
10171;DHT22;5127;50.922;6.988;2022-07-24T06:55:09;22.80;63.10
10171;DHT22;5127;50.922;6.988;2022-07-24T06:57:37;23.20;64.40
10171;DHT22;5127;50.922;6.988;2022-07-24T07:00:06;23.60;65.30
10171;DHT22;5127;50.922;6.988;2022-07-24T07:02:34;24.10;65.60
10171;DHT22;5127;50.922;6.988;2022-07-24T07:05:01;24.70;66.30
10171;DHT22;5127;50.922;6.988;2022-07-24T07:07:30;25.40;66.20
10171;DHT22;5127;50.922;6.988;2022-07-24T07:09:57;26.00;64.60
10171;DHT22;5127;50.922;6.988;2022-07-24T07:12:24;26.70;64.70
10171;DHT22;5127;50.922;6.988;2022-07-24T07:14:52;27.30;63.60
10171;DHT22;5127;50.922;6.988;2022-07-24T07:17:19;28.00;64.40
10171;DHT22;5127;50.922;6.988;2022-07-24T07:19:46;28.50;62.60
10171;DHT22;5127;50.922;6.988;2022-07-24T07:22:13;29.20;62.00
10171;DHT22;5127;50.922;6.988;2022-07-24T07:24:42;29.70;61.80
10171;DHT22;5127;50.922;6.988;2022-07-24T07:27:09;30.30;60.30
10171;DHT22;5127;50.922;6.988;2022-07-24T07:29:36;30.80;59.60
10171;DHT22;5127;50.922;6.988;2022-07-24T07:32:04;31.40;59.00
10171;DHT22;5127;50.922;6.988;2022-07-24T07:34:32;31.80;57.80
10171;DHT22;5127;50.922;6.988;2022-07-24T07:36:59;32.30;57.70
10171;DHT22;5127;50.922;6.988;2022-07-24T07:39:26;32.70;57.00
10171;DHT22;5127;50.922;6.988;2022-07-24T07:41:55;33.10;55.80
10171;DHT22;5127;50.922;6.988;2022-07-24T07:44:22;33.50;54.50
10171;DHT22;5127;50.922;6.988;2022-07-24T07:46:49;33.90;54.20
10171;DHT22;5127;50.922;6.988;2022-07-24T07:49:16;34.20;54.40
10171;DHT22;5127;50.922;6.988;2022-07-24T07:51:44;34.50;53.30
10171;DHT22;5127;50.922;6.988;2022-07-24T07:54:13;34.80;53.00
10171;DHT22;5127;50.922;6.988;2022-07-24T07:56:41;35.10;52.10
10171;DHT22;5127;50.922;6.988;2022-07-24T07:59:09;35.30;51.90
10171;DHT22;5127;50.922;6.988;2022-07-24T08:01:37;35.50;50.40
10171;DHT22;5127;50.922;6.988;2022-07-24T08:04:04;35.70;50.40
10171;DHT22;5127;50.922;6.988;2022-07-24T08:06:31;35.80;50.50
10171;DHT22;5127;50.922;6.988;2022-07-24T08:08:59;36.00;50.20
10171;DHT22;5127;50.922;6.988;2022-07-24T08:11:26;36.10;49.40
10171;DHT22;5127;50.922;6.988;2022-07-24T08:13:54;36.20;49.20
10171;DHT22;5127;50.922;6.988;2022-07-24T08:16:22;36.30;48.40
10171;DHT22;5127;50.922;6.988;2022-07-24T08:18:50;36.40;47.90
10171;DHT22;5127;50.922;6.988;2022-07-24T08:21:17;36.50;48.40
10171;DHT22;5127;50.922;6.988;2022-07-24T08:23:45;36.70;48.00
10171;DHT22;5127;50.922;6.988;2022-07-24T08:26:12;36.70;47.40
10171;DHT22;5127;50.922;6.988;2022-07-24T08:28:40;36.90;47.70
10171;DHT22;5127;50.922;6.988;2022-07-24T08:31:07;37.00;46.90
10171;DHT22;5127;50.922;6.988;2022-07-24T08:33:36;37.10;46.40
10171;DHT22;5127;50.922;6.988;2022-07-24T08:36:04;37.20;45.70
10171;DHT22;5127;50.922;6.988;2022-07-24T08:38:31;37.30;46.00
10171;DHT22;5127;50.922;6.988;2022-07-24T08:40:59;37.40;45.70
10171;DHT22;5127;50.922;6.988;2022-07-24T08:43:26;37.40;45.30
10171;DHT22;5127;50.922;6.988;2022-07-24T08:45:55;37.50;45.60
10171;DHT22;5127;50.922;6.988;2022-07-24T08:48:23;37.60;45.00
10171;DHT22;5127;50.922;6.988;2022-07-24T08:50:52;37.60;44.40
10171;DHT22;5127;50.922;6.988;2022-07-24T08:53:21;37.70;44.90
10171;DHT22;5127;50.922;6.988;2022-07-24T08:55:48;37.80;44.70
10171;DHT22;5127;50.922;6.988;2022-07-24T08:58:16;37.90;44.20
10171;DHT22;5127;50.922;6.988;2022-07-24T09:00:44;37.90;43.90
10171;DHT22;5127;50.922;6.988;2022-07-24T09:03:12;37.90;43.60
10171;DHT22;5127;50.922;6.988;2022-07-24T09:05:54;38.00;43.50
10171;DHT22;5127;50.922;6.988;2022-07-24T09:08:21;38.00;42.70
10171;DHT22;5127;50.922;6.988;2022-07-24T09:10:56;38.10;43.20
10171;DHT22;5127;50.922;6.988;2022-07-24T09:13:26;38.20;41.20
10171;DHT22;5127;50.922;6.988;2022-07-24T09:15:55;38.20;42.30
10171;DHT22;5127;50.922;6.988;2022-07-24T09:18:27;38.20;42.30
10171;DHT22;5127;50.922;6.988;2022-07-24T09:20:57;38.20;41.10
10171;DHT22;5127;50.922;6.988;2022-07-24T09:23:25;38.10;41.30
10171;DHT22;5127;50.922;6.988;2022-07-24T09:25:54;38.00;42.00
10171;DHT22;5127;50.922;6.988;2022-07-24T09:28:21;38.00;42.30
10171;DHT22;5127;50.922;6.988;2022-07-24T09:30:49;38.00;42.00
10171;DHT22;5127;50.922;6.988;2022-07-24T09:33:18;37.90;41.50
10171;DHT22;5127;50.922;6.988;2022-07-24T09:35:49;37.90;42.00
10171;DHT22;5127;50.922;6.988;2022-07-24T09:38:19;37.90;41.40
10171;DHT22;5127;50.922;6.988;2022-07-24T09:40:51;37.90;40.60
10171;DHT22;5127;50.922;6.988;2022-07-24T09:43:20;37.80;40.80
10171;DHT22;5127;50.922;6.988;2022-07-24T09:45:58;37.80;40.90
10171;DHT22;5127;50.922;6.988;2022-07-24T09:48:27;37.70;40.10
10171;DHT22;5127;50.922;6.988;2022-07-24T09:50:57;37.60;40.90
10171;DHT22;5127;50.922;6.988;2022-07-24T09:53:27;37.50;40.60
10171;DHT22;5127;50.922;6.988;2022-07-24T09:55:59;37.40;39.90
10171;DHT22;5127;50.922;6.988;2022-07-24T09:58:27;37.30;39.00
10171;DHT22;5127;50.922;6.988;2022-07-24T10:00:55;37.10;39.80
10171;DHT22;5127;50.922;6.988;2022-07-24T10:03:25;37.00;39.30
10171;DHT22;5127;50.922;6.988;2022-07-24T10:05:55;36.80;39.20
10171;DHT22;5127;50.922;6.988;2022-07-24T10:08:24;36.60;38.80
10171;DHT22;5127;50.922;6.988;2022-07-24T10:10:53;36.40;39.30
10171;DHT22;5127;50.922;6.988;2022-07-24T10:13:21;36.10;38.90
10171;DHT22;5127;50.922;6.988;2022-07-24T10:15:52;35.80;39.50
10171;DHT22;5127;50.922;6.988;2022-07-24T10:18:21;35.60;39.30
10171;DHT22;5127;50.922;6.988;2022-07-24T10:20:55;35.40;39.70
10171;DHT22;5127;50.922;6.988;2022-07-24T10:23:39;35.20;39.90
10171;DHT22;5127;50.922;6.988;2022-07-24T10:26:19;35.00;39.50
10171;DHT22;5127;50.922;6.988;2022-07-24T10:28:53;34.70;40.40
10171;DHT22;5127;50.922;6.988;2022-07-24T10:31:27;34.50;40.30
10171;DHT22;5127;50.922;6.988;2022-07-24T10:33:56;34.40;40.90
10171;DHT22;5127;50.922;6.988;2022-07-24T10:36:27;34.30;41.30
10171;DHT22;5127;50.922;6.988;2022-07-24T10:38:59;34.10;40.90
10171;DHT22;5127;50.922;6.988;2022-07-24T10:41:29;34.00;40.70
10171;DHT22;5127;50.922;6.988;2022-07-24T10:44:13;33.80;40.90
10171;DHT22;5127;50.922;6.988;2022-07-24T10:47:05;33.70;40.60
10171;DHT22;5127;50.922;6.988;2022-07-24T10:49:41;33.60;41.10
10171;DHT22;5127;50.922;6.988;2022-07-24T10:52:10;33.40;41.40
10171;DHT22;5127;50.922;6.988;2022-07-24T10:54:38;33.30;41.50
10171;DHT22;5127;50.922;6.988;2022-07-24T10:57:07;33.20;41.70
10171;DHT22;5127;50.922;6.988;2022-07-24T10:59:36;33.10;41.40
10171;DHT22;5127;50.922;6.988;2022-07-24T11:02:28;33.10;41.80
10171;DHT22;5127;50.922;6.988;2022-07-24T11:05:24;32.90;41.70
10171;DHT22;5127;50.922;6.988;2022-07-24T11:08:27;32.90;41.80
10171;DHT22;5127;50.922;6.988;2022-07-24T11:11:01;32.80;42.10
10171;DHT22;5127;50.922;6.988;2022-07-24T11:13:52;32.80;42.30
10171;DHT22;5127;50.922;6.988;2022-07-24T11:16:25;32.80;42.30
10171;DHT22;5127;50.922;6.988;2022-07-24T11:19:27;32.70;42.20
10171;DHT22;5127;50.922;6.988;2022-07-24T11:22:11;32.70;42.20
10171;DHT22;5127;50.922;6.988;2022-07-24T11:27:24;32.70;42.20
10171;DHT22;5127;50.922;6.988;2022-07-24T11:29:53;32.60;42.50
10171;DHT22;5127;50.922;6.988;2022-07-24T11:32:21;32.60;42.10
10171;DHT22;5127;50.922;6.988;2022-07-24T11:34:49;32.60;42.30
10171;DHT22;5127;50.922;6.988;2022-07-24T11:37:17;32.50;42.30
10171;DHT22;5127;50.922;6.988;2022-07-24T11:39:46;32.50;42.40
10171;DHT22;5127;50.922;6.988;2022-07-24T11:42:16;32.40;42.20
10171;DHT22;5127;50.922;6.988;2022-07-24T11:44:45;32.40;42.10
10171;DHT22;5127;50.922;6.988;2022-07-24T11:47:15;32.30;42.20
10171;DHT22;5127;50.922;6.988;2022-07-24T11:49:45;32.20;41.90
10171;DHT22;5127;50.922;6.988;2022-07-24T11:52:19;32.20;42.20
10171;DHT22;5127;50.922;6.988;2022-07-24T11:54:47;32.20;41.40
10171;DHT22;5127;50.922;6.988;2022-07-24T11:57:19;32.10;42.30
10171;DHT22;5127;50.922;6.988;2022-07-24T11:59:48;32.10;41.70
10171;DHT22;5127;50.922;6.988;2022-07-24T12:02:17;32.10;42.60
10171;DHT22;5127;50.922;6.988;2022-07-24T12:04:46;32.10;42.10
10171;DHT22;5127;50.922;6.988;2022-07-24T12:07:16;32.10;42.50
10171;DHT22;5127;50.922;6.988;2022-07-24T12:09:48;32.10;42.10
10171;DHT22;5127;50.922;6.988;2022-07-24T12:12:20;32.10;42.40
10171;DHT22;5127;50.922;6.988;2022-07-24T12:14:48;32.10;42.20
10171;DHT22;5127;50.922;6.988;2022-07-24T12:17:16;32.00;42.40
10171;DHT22;5127;50.922;6.988;2022-07-24T12:19:54;32.00;42.30
10171;DHT22;5127;50.922;6.988;2022-07-24T12:22:22;32.00;41.90
10171;DHT22;5127;50.922;6.988;2022-07-24T12:24:51;32.00;42.40
10171;DHT22;5127;50.922;6.988;2022-07-24T12:27:35;32.00;42.30
10171;DHT22;5127;50.922;6.988;2022-07-24T12:30:15;32.00;42.00
10171;DHT22;5127;50.922;6.988;2022-07-24T12:32:54;32.00;42.30
10171;DHT22;5127;50.922;6.988;2022-07-24T12:35:22;32.00;41.90
10171;DHT22;5127;50.922;6.988;2022-07-24T12:37:51;32.00;42.50
10171;DHT22;5127;50.922;6.988;2022-07-24T12:40:27;32.00;42.40
10171;DHT22;5127;50.922;6.988;2022-07-24T12:43:00;32.00;41.90
10171;DHT22;5127;50.922;6.988;2022-07-24T12:45:28;32.00;42.50
10171;DHT22;5127;50.922;6.988;2022-07-24T12:48:19;32.00;42.50
10171;DHT22;5127;50.922;6.988;2022-07-24T12:51:03;32.00;41.80
10171;DHT22;5127;50.922;6.988;2022-07-24T12:53:34;32.00;41.60
10171;DHT22;5127;50.922;6.988;2022-07-24T12:56:10;32.00;42.40
10171;DHT22;5127;50.922;6.988;2022-07-24T12:58:55;32.10;41.70
10171;DHT22;5127;50.922;6.988;2022-07-24T13:01:24;32.10;41.70
10171;DHT22;5127;50.922;6.988;2022-07-24T13:03:56;32.10;42.20
10171;DHT22;5127;50.922;6.988;2022-07-24T13:06:35;32.10;42.10
10171;DHT22;5127;50.922;6.988;2022-07-24T13:09:06;32.20;41.40
10171;DHT22;5127;50.922;6.988;2022-07-24T13:11:34;32.20;41.60
10171;DHT22;5127;50.922;6.988;2022-07-24T13:14:02;32.20;41.90
10171;DHT22;5127;50.922;6.988;2022-07-24T13:16:31;32.20;41.90
10171;DHT22;5127;50.922;6.988;2022-07-24T13:19:01;32.20;41.90
10171;DHT22;5127;50.922;6.988;2022-07-24T13:21:28;32.20;41.70
10171;DHT22;5127;50.922;6.988;2022-07-24T13:23:56;32.20;41.90
10171;DHT22;5127;50.922;6.988;2022-07-24T13:26:23;32.20;41.90
10171;DHT22;5127;50.922;6.988;2022-07-24T13:28:51;32.20;41.80
10171;DHT22;5127;50.922;6.988;2022-07-24T13:31:18;32.20;41.50
10171;DHT22;5127;50.922;6.988;2022-07-24T13:33:46;32.20;41.50
10171;DHT22;5127;50.922;6.988;2022-07-24T13:36:16;32.20;41.90
10171;DHT22;5127;50.922;6.988;2022-07-24T13:38:43;32.20;41.30
10171;DHT22;5127;50.922;6.988;2022-07-24T13:41:11;32.30;41.50
10171;DHT22;5127;50.922;6.988;2022-07-24T13:43:38;32.30;41.70
10171;DHT22;5127;50.922;6.988;2022-07-24T13:46:06;32.30;41.50
10171;DHT22;5127;50.922;6.988;2022-07-24T13:48:33;32.30;41.60
10171;DHT22;5127;50.922;6.988;2022-07-24T13:51:00;32.40;41.20
10171;DHT22;5127;50.922;6.988;2022-07-24T13:53:29;32.30;41.30
10171;DHT22;5127;50.922;6.988;2022-07-24T13:55:57;32.40;40.90
10171;DHT22;5127;50.922;6.988;2022-07-24T13:58:24;32.40;41.00
10171;DHT22;5127;50.922;6.988;2022-07-24T14:00:51;32.40;41.00
10171;DHT22;5127;50.922;6.988;2022-07-24T14:03:19;32.40;41.00
10171;DHT22;5127;50.922;6.988;2022-07-24T14:05:47;32.40;41.40
10171;DHT22;5127;50.922;6.988;2022-07-24T14:08:14;32.50;41.20
10171;DHT22;5127;50.922;6.988;2022-07-24T14:10:43;32.50;40.90
10171;DHT22;5127;50.922;6.988;2022-07-24T14:13:10;32.50;40.40
10171;DHT22;5127;50.922;6.988;2022-07-24T14:15:38;32.50;40.60
10171;DHT22;5127;50.922;6.988;2022-07-24T14:18:05;32.50;40.50
10171;DHT22;5127;50.922;6.988;2022-07-24T14:20:32;32.60;40.80
10171;DHT22;5127;50.922;6.988;2022-07-24T14:22:59;32.50;40.50
10171;DHT22;5127;50.922;6.988;2022-07-24T14:25:27;32.60;40.60
10171;DHT22;5127;50.922;6.988;2022-07-24T14:27:55;32.60;40.80
10171;DHT22;5127;50.922;6.988;2022-07-24T14:30:23;32.60;40.70
10171;DHT22;5127;50.922;6.988;2022-07-24T14:32:51;32.70;40.80
10171;DHT22;5127;50.922;6.988;2022-07-24T14:35:18;32.70;40.60
10171;DHT22;5127;50.922;6.988;2022-07-24T14:37:46;32.70;40.40
10171;DHT22;5127;50.922;6.988;2022-07-24T14:40:13;32.70;40.50
10171;DHT22;5127;50.922;6.988;2022-07-24T14:42:40;32.70;40.40
10171;DHT22;5127;50.922;6.988;2022-07-24T14:45:10;32.80;40.30
10171;DHT22;5127;50.922;6.988;2022-07-24T14:47:37;32.80;39.90
10171;DHT22;5127;50.922;6.988;2022-07-24T14:50:06;32.80;40.20
10171;DHT22;5127;50.922;6.988;2022-07-24T14:52:34;32.80;40.00
10171;DHT22;5127;50.922;6.988;2022-07-24T14:55:02;32.80;40.10
10171;DHT22;5127;50.922;6.988;2022-07-24T14:57:29;32.80;40.40
10171;DHT22;5127;50.922;6.988;2022-07-24T14:59:56;32.80;40.00
10171;DHT22;5127;50.922;6.988;2022-07-24T15:02:25;32.90;39.90
10171;DHT22;5127;50.922;6.988;2022-07-24T15:04:52;32.90;39.70
10171;DHT22;5127;50.922;6.988;2022-07-24T15:07:19;32.90;39.90
10171;DHT22;5127;50.922;6.988;2022-07-24T15:09:47;32.90;39.70
10171;DHT22;5127;50.922;6.988;2022-07-24T15:12:14;32.90;39.60
10171;DHT22;5127;50.922;6.988;2022-07-24T15:14:41;32.90;40.40
10171;DHT22;5127;50.922;6.988;2022-07-24T15:17:08;32.90;39.60
10171;DHT22;5127;50.922;6.988;2022-07-24T15:19:37;33.00;39.10
10171;DHT22;5127;50.922;6.988;2022-07-24T15:22:04;33.00;39.00
10171;DHT22;5127;50.922;6.988;2022-07-24T15:24:31;33.00;39.10
10171;DHT22;5127;50.922;6.988;2022-07-24T15:26:59;33.00;39.10
10171;DHT22;5127;50.922;6.988;2022-07-24T15:29:27;33.00;39.00
10171;DHT22;5127;50.922;6.988;2022-07-24T15:31:56;33.00;39.00
10171;DHT22;5127;50.922;6.988;2022-07-24T15:34:23;32.90;39.10
10171;DHT22;5127;50.922;6.988;2022-07-24T15:36:52;32.90;38.90
10171;DHT22;5127;50.922;6.988;2022-07-24T15:39:19;32.90;38.70
10171;DHT22;5127;50.922;6.988;2022-07-24T15:41:46;33.00;38.80
10171;DHT22;5127;50.922;6.988;2022-07-24T15:44:14;32.90;38.80
10171;DHT22;5127;50.922;6.988;2022-07-24T15:46:41;33.00;39.00
10171;DHT22;5127;50.922;6.988;2022-07-24T15:49:08;33.00;39.20
10171;DHT22;5127;50.922;6.988;2022-07-24T15:51:36;33.00;39.20
10171;DHT22;5127;50.922;6.988;2022-07-24T15:54:05;33.00;38.80
10171;DHT22;5127;50.922;6.988;2022-07-24T15:56:32;33.00;39.40
10171;DHT22;5127;50.922;6.988;2022-07-24T15:59:00;33.10;39.30